sensor_id;sensor_type;location;lat;lon;timestamp;pressure;altitude;pressure_sealevel;temperature;humidity
49393;BME280;35268;42.642;23.308;2023-08-06T00:02:25;92861.28;;;18.73;93.13
49393;BME280;35268;42.642;23.308;2023-08-06T00:04:50;92883.63;;;18.95;91.84
49393;BME280;35268;42.642;23.308;2023-08-06T00:07:16;92882.81;;;19.09;90.70
49393;BME280;35268;42.642;23.308;2023-08-06T00:09:42;92883.94;;;19.15;91.06
49393;BME280;35268;42.642;23.308;2023-08-06T00:12:07;92873.94;;;19.15;91.62
49393;BME280;35268;42.642;23.308;2023-08-06T00:14:33;92863.09;;;19.19;91.94
49393;BME280;35268;42.642;23.308;2023-08-06T00:16:58;92853.84;;;19.23;93.04
49393;BME280;35268;42.642;23.308;2023-08-06T00:19:24;92862.28;;;19.29;92.80
49393;BME280;35268;42.642;23.308;2023-08-06T00:21:49;92866.91;;;19.36;92.46
49393;BME280;35268;42.642;23.308;2023-08-06T00:24:14;92867.63;;;19.43;91.42
49393;BME280;35268;42.642;23.308;2023-08-06T00:26:40;92871.09;;;19.48;88.55
49393;BME280;35268;42.642;23.308;2023-08-06T00:29:05;92870.34;;;19.43;86.94
49393;BME280;35268;42.642;23.308;2023-08-06T00:31:31;92860.75;;;19.32;87.53
49393;BME280;35268;42.642;23.308;2023-08-06T00:33:56;92861.13;;;19.34;88.07
49393;BME280;35268;42.642;23.308;2023-08-06T00:36:21;92868.50;;;19.26;87.78
49393;BME280;35268;42.642;23.308;2023-08-06T00:38:47;92857.31;;;19.24;88.25
49393;BME280;35268;42.642;23.308;2023-08-06T00:41:12;92849.19;;;19.28;88.49
49393;BME280;35268;42.642;23.308;2023-08-06T00:43:38;92858.44;;;19.27;88.68
49393;BME280;35268;42.642;23.308;2023-08-06T00:46:03;92839.53;;;19.30;89.35
49393;BME280;35268;42.642;23.308;2023-08-06T00:48:29;92838.34;;;19.31;88.07
49393;BME280;35268;42.642;23.308;2023-08-06T00:50:55;92840.31;;;19.27;86.89
49393;BME280;35268;42.642;23.308;2023-08-06T00:53:20;92842.63;;;19.25;87.75
49393;BME280;35268;42.642;23.308;2023-08-06T00:55:46;92846.13;;;19.22;88.04
49393;BME280;35268;42.642;23.308;2023-08-06T00:58:12;92830.31;;;19.20;87.31
49393;BME280;35268;42.642;23.308;2023-08-06T01:00:39;92829.19;;;19.14;86.46
49393;BME280;35268;42.642;23.308;2023-08-06T01:03:04;92827.66;;;19.13;87.09
49393;BME280;35268;42.642;23.308;2023-08-06T01:05:30;92815.31;;;19.09;87.76
49393;BME280;35268;42.642;23.308;2023-08-06T01:15:38;92820.31;;;19.07;88.57
49393;BME280;35268;42.642;23.308;2023-08-06T01:18:06;92802.22;;;19.00;86.75
49393;BME280;35268;42.642;23.308;2023-08-06T01:20:32;92807.25;;;18.91;86.05
49393;BME280;35268;42.642;23.308;2023-08-06T01:22:57;92802.28;;;18.82;86.61
49393;BME280;35268;42.642;23.308;2023-08-06T01:25:27;92789.94;;;18.84;88.70
49393;BME280;35268;42.642;23.308;2023-08-06T01:27:59;92794.56;;;18.91;88.52
49393;BME280;35268;42.642;23.308;2023-08-06T01:30:31;92786.06;;;18.89;88.25
49393;BME280;35268;42.642;23.308;2023-08-06T01:33:04;92790.34;;;18.79;86.92
49393;BME280;35268;42.642;23.308;2023-08-06T01:35:32;92799.97;;;18.80;89.08
49393;BME280;35268;42.642;23.308;2023-08-06T01:37:59;92784.16;;;18.72;88.99
49393;BME280;35268;42.642;23.308;2023-08-06T01:40:25;92772.22;;;18.65;89.50
49393;BME280;35268;42.642;23.308;2023-08-06T01:42:52;92775.34;;;18.60;89.90
49393;BME280;35268;42.642;23.308;2023-08-06T01:45:17;92768.38;;;18.63;89.66
49393;BME280;35268;42.642;23.308;2023-08-06T01:47:43;92782.25;;;18.69;89.69
49393;BME280;35268;42.642;23.308;2023-08-06T01:50:09;92785.72;;;18.65;89.98
49393;BME280;35268;42.642;23.308;2023-08-06T01:52:34;92786.91;;;18.61;90.84
49393;BME280;35268;42.642;23.308;2023-08-06T01:55:00;92785.78;;;18.40;92.19
49393;BME280;35268;42.642;23.308;2023-08-06T01:57:25;92780.78;;;18.42;93.09
49393;BME280;35268;42.642;23.308;2023-08-06T01:59:50;92786.16;;;18.42;93.18
49393;BME280;35268;42.642;23.308;2023-08-06T02:02:16;92774.22;;;18.33;92.86
49393;BME280;35268;42.642;23.308;2023-08-06T02:04:41;92766.94;;;18.26;93.75
49393;BME280;35268;42.642;23.308;2023-08-06T02:07:07;92770.00;;;18.21;93.97
49393;BME280;35268;42.642;23.308;2023-08-06T02:09:32;92770.00;;;18.17;94.58
49393;BME280;35268;42.642;23.308;2023-08-06T02:11:58;92776.94;;;18.18;94.33
49393;BME280;35268;42.642;23.308;2023-08-06T02:14:23;92768.09;;;18.14;93.29
49393;BME280;35268;42.642;23.308;2023-08-06T02:16:49;92777.72;;;18.15;94.39
49393;BME280;35268;42.642;23.308;2023-08-06T02:19:15;92798.91;;;18.13;95.65
49393;BME280;35268;42.642;23.308;2023-08-06T02:21:40;92807.38;;;18.08;94.75
49393;BME280;35268;42.642;23.308;2023-08-06T02:24:06;92800.06;;;17.94;94.65
49393;BME280;35268;42.642;23.308;2023-08-06T02:26:31;92782.75;;;17.92;96.31
49393;BME280;35268;42.642;23.308;2023-08-06T02:28:57;92797.75;;;17.93;97.14
49393;BME280;35268;42.642;23.308;2023-08-06T02:31:22;92790.84;;;17.95;97.34
49393;BME280;35268;42.642;23.308;2023-08-06T02:33:47;92770.81;;;17.86;97.03
49393;BME280;35268;42.642;23.308;2023-08-06T02:36:13;92786.59;;;17.91;97.82
49393;BME280;35268;42.642;23.308;2023-08-06T02:38:39;92800.06;;;17.91;96.85
49393;BME280;35268;42.642;23.308;2023-08-06T02:41:04;92821.25;;;17.89;97.29
49393;BME280;35268;42.642;23.308;2023-08-06T02:43:30;92830.09;;;17.93;97.59
49393;BME280;35268;42.642;23.308;2023-08-06T02:46:02;92813.94;;;17.96;97.32
49393;BME280;35268;42.642;23.308;2023-08-06T02:48:27;92797.75;;;18.00;96.79
49393;BME280;35268;42.642;23.308;2023-08-06T02:50:53;92784.66;;;18.09;97.12
49393;BME280;35268;42.642;23.308;2023-08-06T02:53:18;92775.81;;;18.12;97.14
49393;BME280;35268;42.642;23.308;2023-08-06T02:55:47;92776.16;;;18.21;97.41
49393;BME280;35268;42.642;23.308;2023-08-06T02:58:13;92763.06;;;18.23;97.26
49393;BME280;35268;42.642;23.308;2023-08-06T03:00:39;92769.22;;;18.28;97.19
49393;BME280;35268;42.642;23.308;2023-08-06T03:03:04;92763.81;;;18.38;98.05
49393;BME280;35268;42.642;23.308;2023-08-06T03:05:30;92748.41;;;18.42;96.79
49393;BME280;35268;42.642;23.308;2023-08-06T03:07:55;92750.34;;;18.42;96.40
49393;BME280;35268;42.642;23.308;2023-08-06T03:10:20;92764.56;;;18.53;97.01
49393;BME280;35268;42.642;23.308;2023-08-06T03:12:46;92754.53;;;18.54;97.06
49393;BME280;35268;42.642;23.308;2023-08-06T03:15:11;92779.97;;;18.53;96.83
49393;BME280;35268;42.642;23.308;2023-08-06T03:17:37;92744.16;;;18.49;96.49
49393;BME280;35268;42.642;23.308;2023-08-06T03:20:02;92709.06;;;18.45;95.79
49393;BME280;35268;42.642;23.308;2023-08-06T03:22:28;92717.97;;;18.42;94.20
49393;BME280;35268;42.642;23.308;2023-08-06T03:24:54;92733.34;;;18.45;94.52
49393;BME280;35268;42.642;23.308;2023-08-06T03:27:19;92751.44;;;18.52;96.45
49393;BME280;35268;42.642;23.308;2023-08-06T03:29:45;92763.00;;;18.56;96.34
49393;BME280;35268;42.642;23.308;2023-08-06T03:32:10;92771.47;;;18.58;96.87
49393;BME280;35268;42.642;23.308;2023-08-06T03:34:35;92778.44;;;18.55;97.97
49393;BME280;35268;42.642;23.308;2023-08-06T03:37:01;92767.25;;;18.57;99.10
49393;BME280;35268;42.642;23.308;2023-08-06T03:39:27;92770.72;;;18.64;99.50
49393;BME280;35268;42.642;23.308;2023-08-06T03:41:52;92774.91;;;18.80;98.04
49393;BME280;35268;42.642;23.308;2023-08-06T03:44:17;92784.91;;;18.90;96.44
49393;BME280;35268;42.642;23.308;2023-08-06T03:46:43;92774.84;;;18.94;95.75
49393;BME280;35268;42.642;23.308;2023-08-06T03:49:08;92787.59;;;18.97;95.27
49393;BME280;35268;42.642;23.308;2023-08-06T03:51:34;92788.72;;;19.07;96.07
49393;BME280;35268;42.642;23.308;2023-08-06T03:53:59;92793.31;;;19.10;96.94
49393;BME280;35268;42.642;23.308;2023-08-06T03:56:25;92799.88;;;19.09;96.01
49393;BME280;35268;42.642;23.308;2023-08-06T03:58:50;92790.59;;;19.10;95.60
49393;BME280;35268;42.642;23.308;2023-08-06T04:01:16;92794.50;;;18.98;96.47
49393;BME280;35268;42.642;23.308;2023-08-06T04:03:41;92819.56;;;19.02;96.06
49393;BME280;35268;42.642;23.308;2023-08-06T04:06:07;92805.31;;;18.98;96.04
49393;BME280;35268;42.642;23.308;2023-08-06T04:08:32;92811.84;;;19.04;96.24
49393;BME280;35268;42.642;23.308;2023-08-06T04:10:58;92808.38;;;19.11;95.61
49393;BME280;35268;42.642;23.308;2023-08-06T04:13:23;92807.56;;;19.18;95.61
49393;BME280;35268;42.642;23.308;2023-08-06T04:15:49;92811.03;;;19.18;94.56
49393;BME280;35268;42.642;23.308;2023-08-06T04:18:14;92811.78;;;19.19;94.61
49393;BME280;35268;42.642;23.308;2023-08-06T04:20:46;92817.63;;;19.14;93.79
49393;BME280;35268;42.642;23.308;2023-08-06T04:23:12;92808.38;;;19.04;94.32
49393;BME280;35268;42.642;23.308;2023-08-06T04:25:38;92805.69;;;19.04;95.08
49393;BME280;35268;42.642;23.308;2023-08-06T04:28:03;92802.22;;;19.03;95.78
49393;BME280;35268;42.642;23.308;2023-08-06T04:30:29;92801.47;;;18.99;94.90
49393;BME280;35268;42.642;23.308;2023-08-06T04:32:56;92791.81;;;18.95;95.23
49393;BME280;35268;42.642;23.308;2023-08-06T04:35:22;92781.41;;;18.97;95.69
49393;BME280;35268;42.642;23.308;2023-08-06T04:37:47;92778.31;;;18.98;94.68
49393;BME280;35268;42.642;23.308;2023-08-06T04:40:13;92777.56;;;18.94;94.91
49393;BME280;35268;42.642;23.308;2023-08-06T04:42:39;92768.69;;;18.97;94.82
49393;BME280;35268;42.642;23.308;2023-08-06T04:45:04;92762.13;;;18.95;94.09
49393;BME280;35268;42.642;23.308;2023-08-06T04:47:30;92748.63;;;18.95;94.92
49393;BME280;35268;42.642;23.308;2023-08-06T04:49:55;92736.66;;;18.99;95.24
49393;BME280;35268;42.642;23.308;2023-08-06T04:52:21;92740.50;;;19.06;95.64
49393;BME280;35268;42.642;23.308;2023-08-06T04:54:46;92735.47;;;19.00;95.44
49393;BME280;35268;42.642;23.308;2023-08-06T04:57:12;92725.06;;;18.99;96.28
49393;BME280;35268;42.642;23.308;2023-08-06T04:59:37;92716.59;;;18.97;96.50
49393;BME280;35268;42.642;23.308;2023-08-06T05:02:02;92720.47;;;18.96;97.34
49393;BME280;35268;42.642;23.308;2023-08-06T05:04:28;92720.41;;;19.03;97.99
49393;BME280;35268;42.642;23.308;2023-08-06T05:06:53;92711.53;;;19.06;96.91
49393;BME280;35268;42.642;23.308;2023-08-06T05:09:19;92714.97;;;19.14;96.87
49393;BME280;35268;42.642;23.308;2023-08-06T05:11:46;92723.00;;;19.24;96.26
49393;BME280;35268;42.642;23.308;2023-08-06T05:14:12;92729.91;;;19.33;94.08
49393;BME280;35268;42.642;23.308;2023-08-06T05:16:37;92730.72;;;19.26;94.06
49393;BME280;35268;42.642;23.308;2023-08-06T05:19:03;92735.69;;;19.31;94.03
49393;BME280;35268;42.642;23.308;2023-08-06T05:21:28;92731.78;;;19.39;93.21
49393;BME280;35268;42.642;23.308;2023-08-06T05:23:54;92720.56;;;19.44;92.78
49393;BME280;35268;42.642;23.308;2023-08-06T05:26:19;92727.41;;;19.60;93.42
49393;BME280;35268;42.642;23.308;2023-08-06T05:28:45;92714.94;;;19.80;92.84
49393;BME280;35268;42.642;23.308;2023-08-06T05:31:11;92706.22;;;20.07;93.36
49393;BME280;35268;42.642;23.308;2023-08-06T05:33:36;92707.19;;;20.24;90.35
49393;BME280;35268;42.642;23.308;2023-08-06T05:36:02;92713.22;;;20.39;87.43
49393;BME280;35268;42.642;23.308;2023-08-06T05:38:27;92711.41;;;20.29;86.19
49393;BME280;35268;42.642;23.308;2023-08-06T05:40:53;92710.38;;;20.15;87.38
49393;BME280;35268;42.642;23.308;2023-08-06T05:43:21;92710.19;;;19.95;88.59
49393;BME280;35268;42.642;23.308;2023-08-06T05:45:49;92696.78;;;19.81;86.73
49393;BME280;35268;42.642;23.308;2023-08-06T05:48:15;92702.19;;;19.81;87.41
49393;BME280;35268;42.642;23.308;2023-08-06T05:50:40;92703.03;;;19.71;87.99
49393;BME280;35268;42.642;23.308;2023-08-06T05:53:06;92716.16;;;19.72;87.40
49393;BME280;35268;42.642;23.308;2023-08-06T05:55:31;92718.81;;;19.79;88.82
49393;BME280;35268;42.642;23.308;2023-08-06T05:57:58;92717.56;;;19.91;86.92
49393;BME280;35268;42.642;23.308;2023-08-06T06:00:23;92729.75;;;20.10;86.06
49393;BME280;35268;42.642;23.308;2023-08-06T06:02:48;92742.00;;;20.22;85.07
49393;BME280;35268;42.642;23.308;2023-08-06T06:05:14;92743.00;;;20.39;85.14
49393;BME280;35268;42.642;23.308;2023-08-06T06:07:40;92734.81;;;20.46;84.81
49393;BME280;35268;42.642;23.308;2023-08-06T06:10:05;92742.56;;;20.44;82.14
49393;BME280;35268;42.642;23.308;2023-08-06T06:12:31;92737.91;;;20.44;82.92
49393;BME280;35268;42.642;23.308;2023-08-06T06:14:58;92742.16;;;20.46;81.29
49393;BME280;35268;42.642;23.308;2023-08-06T06:17:23;92757.22;;;20.47;80.89
49393;BME280;35268;42.642;23.308;2023-08-06T06:19:49;92747.94;;;20.48;81.92
49393;BME280;35268;42.642;23.308;2023-08-06T06:22:14;92776.50;;;20.52;80.80
49393;BME280;35268;42.642;23.308;2023-08-06T06:24:40;92761.88;;;20.46;80.74
49393;BME280;35268;42.642;23.308;2023-08-06T06:27:05;92770.50;;;20.34;80.20
49393;BME280;35268;42.642;23.308;2023-08-06T06:29:31;92765.88;;;20.31;80.41
49393;BME280;35268;42.642;23.308;2023-08-06T06:31:56;92763.63;;;20.26;80.55
49393;BME280;35268;42.642;23.308;2023-08-06T06:34:21;92768.22;;;20.29;81.62
49393;BME280;35268;42.642;23.308;2023-08-06T06:36:47;92782.94;;;20.28;79.44
49393;BME280;35268;42.642;23.308;2023-08-06T06:39:13;92774.38;;;20.29;79.13
49393;BME280;35268;42.642;23.308;2023-08-06T06:41:38;92784.00;;;20.37;79.81
49393;BME280;35268;42.642;23.308;2023-08-06T06:44:05;92783.88;;;20.52;80.30
49393;BME280;35268;42.642;23.308;2023-08-06T06:46:30;92804.34;;;20.49;77.93
49393;BME280;35268;42.642;23.308;2023-08-06T06:48:55;92789.03;;;20.35;77.78
49393;BME280;35268;42.642;23.308;2023-08-06T06:51:21;92801.53;;;20.22;79.44
49393;BME280;35268;42.642;23.308;2023-08-06T06:53:46;92801.69;;;20.00;79.27
49393;BME280;35268;42.642;23.308;2023-08-06T06:56:12;92815.31;;;19.86;78.85
49393;BME280;35268;42.642;23.308;2023-08-06T06:58:37;92815.75;;;19.81;78.54
49393;BME280;35268;42.642;23.308;2023-08-06T07:01:04;92821.13;;;19.84;79.67
49393;BME280;35268;42.642;23.308;2023-08-06T07:03:30;92831.09;;;19.95;77.04
49393;BME280;35268;42.642;23.308;2023-08-06T07:05:58;92830.28;;;20.01;77.90
49393;BME280;35268;42.642;23.308;2023-08-06T07:08:25;92840.34;;;20.01;75.01
49393;BME280;35268;42.642;23.308;2023-08-06T07:10:50;92843.34;;;20.10;76.41
49393;BME280;35268;42.642;23.308;2023-08-06T07:13:15;92848.75;;;20.10;72.94
49393;BME280;35268;42.642;23.308;2023-08-06T07:15:42;92853.03;;;20.04;70.37
49393;BME280;35268;42.642;23.308;2023-08-06T07:18:07;92859.66;;;19.96;70.10
49393;BME280;35268;42.642;23.308;2023-08-06T07:20:33;92847.31;;;19.95;69.17
49393;BME280;35268;42.642;23.308;2023-08-06T07:23:00;92848.94;;;19.81;68.68
49393;BME280;35268;42.642;23.308;2023-08-06T07:25:25;92844.63;;;19.95;67.62
49393;BME280;35268;42.642;23.308;2023-08-06T07:27:51;92843.38;;;20.07;66.40
49393;BME280;35268;42.642;23.308;2023-08-06T07:30:16;92842.94;;;20.15;64.71
49393;BME280;35268;42.642;23.308;2023-08-06T07:32:42;92841.25;;;20.29;65.52
49393;BME280;35268;42.642;23.308;2023-08-06T07:35:07;92850.78;;;20.48;64.16
49393;BME280;35268;42.642;23.308;2023-08-06T07:37:38;92842.59;;;20.55;62.40
49393;BME280;35268;42.642;23.308;2023-08-06T07:40:04;92850.31;;;20.60;64.73
49393;BME280;35268;42.642;23.308;2023-08-06T07:42:29;92849.50;;;20.63;64.64
49393;BME280;35268;42.642;23.308;2023-08-06T07:44:56;92845.16;;;20.76;63.95
49393;BME280;35268;42.642;23.308;2023-08-06T07:47:22;92843.94;;;20.81;64.42
49393;BME280;35268;42.642;23.308;2023-08-06T07:49:47;92852.34;;;20.90;63.29
49393;BME280;35268;42.642;23.308;2023-08-06T07:52:13;92844.47;;;21.03;64.14
49393;BME280;35268;42.642;23.308;2023-08-06T07:54:38;92837.16;;;21.00;61.68
49393;BME280;35268;42.642;23.308;2023-08-06T07:57:04;92854.19;;;21.00;62.07
49393;BME280;35268;42.642;23.308;2023-08-06T07:59:30;92849.53;;;21.01;61.06
49393;BME280;35268;42.642;23.308;2023-08-06T08:01:55;92843.34;;;21.00;60.97
49393;BME280;35268;42.642;23.308;2023-08-06T08:04:21;92839.75;;;21.11;62.72
49393;BME280;35268;42.642;23.308;2023-08-06T08:06:47;92833.03;;;21.22;61.01
49393;BME280;35268;42.642;23.308;2023-08-06T08:09:12;92831.84;;;21.23;60.30
49393;BME280;35268;42.642;23.308;2023-08-06T08:11:39;92837.81;;;21.46;59.57
49393;BME280;35268;42.642;23.308;2023-08-06T08:14:04;92845.88;;;21.49;60.86
49393;BME280;35268;42.642;23.308;2023-08-06T08:16:29;92838.94;;;21.48;61.20
49393;BME280;35268;42.642;23.308;2023-08-06T08:18:55;92835.84;;;21.50;61.63
49393;BME280;35268;42.642;23.308;2023-08-06T08:21:20;92841.16;;;21.57;62.17
49393;BME280;35268;42.642;23.308;2023-08-06T08:23:46;92845.94;;;21.76;62.54
49393;BME280;35268;42.642;23.308;2023-08-06T08:26:11;92847.34;;;21.88;60.27
49393;BME280;35268;42.642;23.308;2023-08-06T08:28:37;92846.78;;;22.00;58.45
49393;BME280;35268;42.642;23.308;2023-08-06T08:31:02;92855.25;;;22.02;58.76
49393;BME280;35268;42.642;23.308;2023-08-06T08:33:28;92857.75;;;21.90;60.24
49393;BME280;35268;42.642;23.308;2023-08-06T08:35:53;92838.03;;;21.86;60.11
49393;BME280;35268;42.642;23.308;2023-08-06T08:38:18;92843.44;;;21.89;60.40
49393;BME280;35268;42.642;23.308;2023-08-06T08:40:50;92844.91;;;21.94;58.17
49393;BME280;35268;42.642;23.308;2023-08-06T08:43:19;92848.44;;;21.91;57.33
49393;BME280;35268;42.642;23.308;2023-08-06T08:45:49;92841.59;;;21.82;56.52
49393;BME280;35268;42.642;23.308;2023-08-06T08:48:16;92839.63;;;21.83;57.07
49393;BME280;35268;42.642;23.308;2023-08-06T08:50:44;92832.41;;;22.00;58.75
49393;BME280;35268;42.642;23.308;2023-08-06T08:53:11;92828.38;;;22.12;56.64
49393;BME280;35268;42.642;23.308;2023-08-06T08:55:38;92829.28;;;22.29;58.28
49393;BME280;35268;42.642;23.308;2023-08-06T08:58:04;92834.25;;;22.34;55.48
49393;BME280;35268;42.642;23.308;2023-08-06T09:00:30;92827.53;;;22.42;56.60
49393;BME280;35268;42.642;23.308;2023-08-06T09:02:55;92824.00;;;22.45;54.02
49393;BME280;35268;42.642;23.308;2023-08-06T09:05:23;92825.06;;;22.51;55.47
49393;BME280;35268;42.642;23.308;2023-08-06T09:07:49;92824.19;;;22.58;53.89
49393;BME280;35268;42.642;23.308;2023-08-06T09:10:19;92831.00;;;22.66;54.54
49393;BME280;35268;42.642;23.308;2023-08-06T09:12:48;92827.91;;;22.68;54.18
49393;BME280;35268;42.642;23.308;2023-08-06T09:15:16;92818.09;;;22.74;52.57
49393;BME280;35268;42.642;23.308;2023-08-06T09:17:41;92821.00;;;22.83;54.85
49393;BME280;35268;42.642;23.308;2023-08-06T09:20:13;92832.94;;;22.89;54.06
49393;BME280;35268;42.642;23.308;2023-08-06T09:22:39;92813.56;;;22.87;52.22
49393;BME280;35268;42.642;23.308;2023-08-06T09:25:06;92819.50;;;22.58;51.65
49393;BME280;35268;42.642;23.308;2023-08-06T09:27:38;92806.63;;;22.62;54.38
49393;BME280;35268;42.642;23.308;2023-08-06T09:30:04;92800.66;;;22.71;53.76
49393;BME280;35268;42.642;23.308;2023-08-06T09:32:46;92810.84;;;22.87;52.80
49393;BME280;35268;42.642;23.308;2023-08-06T09:35:16;92813.44;;;22.94;52.86
49393;BME280;35268;42.642;23.308;2023-08-06T09:37:42;92803.94;;;23.06;52.77
49393;BME280;35268;42.642;23.308;2023-08-06T09:40:30;92771.28;;;23.26;51.26
49393;BME280;35268;42.642;23.308;2023-08-06T09:42:57;92796.25;;;23.21;50.51
49393;BME280;35268;42.642;23.308;2023-08-06T09:45:23;92791.66;;;23.18;51.40
49393;BME280;35268;42.642;23.308;2023-08-06T09:47:55;92798.28;;;23.17;51.69
49393;BME280;35268;42.642;23.308;2023-08-06T09:50:21;92789.50;;;23.09;50.42
49393;BME280;35268;42.642;23.308;2023-08-06T09:52:47;92802.16;;;23.16;52.49
49393;BME280;35268;42.642;23.308;2023-08-06T09:55:16;92803.91;;;23.26;51.41
49393;BME280;35268;42.642;23.308;2023-08-06T09:57:42;92796.78;;;23.32;48.72
49393;BME280;35268;42.642;23.308;2023-08-06T10:00:09;92789.72;;;23.18;49.15
49393;BME280;35268;42.642;23.308;2023-08-06T10:02:39;92801.47;;;23.32;51.02
49393;BME280;35268;42.642;23.308;2023-08-06T10:05:07;92806.72;;;23.22;50.22
49393;BME280;35268;42.642;23.308;2023-08-06T10:07:33;92810.13;;;23.27;50.12
49393;BME280;35268;42.642;23.308;2023-08-06T10:09:59;92817.38;;;23.33;49.97
49393;BME280;35268;42.642;23.308;2023-08-06T10:12:25;92812.69;;;23.34;50.62
49393;BME280;35268;42.642;23.308;2023-08-06T10:14:53;92819.59;;;23.38;51.04
49393;BME280;35268;42.642;23.308;2023-08-06T10:17:22;92809.00;;;23.44;50.69
49393;BME280;35268;42.642;23.308;2023-08-06T10:19:49;92803.31;;;23.55;52.09
49393;BME280;35268;42.642;23.308;2023-08-06T10:22:17;92811.81;;;23.57;49.67
49393;BME280;35268;42.642;23.308;2023-08-06T10:24:50;92809.03;;;23.60;49.42
49393;BME280;35268;42.642;23.308;2023-08-06T10:32:50;92812.50;;;23.81;47.54
49393;BME280;35268;42.642;23.308;2023-08-06T10:35:37;92820.34;;;23.95;47.95
49393;BME280;35268;42.642;23.308;2023-08-06T10:38:04;92823.72;;;23.83;47.32
49393;BME280;35268;42.642;23.308;2023-08-06T10:40:39;92826.59;;;23.76;47.80
49393;BME280;35268;42.642;23.308;2023-08-06T10:43:25;92838.53;;;23.62;48.16
49393;BME280;35268;42.642;23.308;2023-08-06T10:45:51;92831.38;;;23.52;48.95
49393;BME280;35268;42.642;23.308;2023-08-06T10:48:31;92848.78;;;23.54;51.06
49393;BME280;35268;42.642;23.308;2023-08-06T10:51:00;92848.72;;;23.58;49.11
49393;BME280;35268;42.642;23.308;2023-08-06T10:53:25;92845.44;;;23.47;50.05
49393;BME280;35268;42.642;23.308;2023-08-06T10:55:51;92844.81;;;23.59;51.28
49393;BME280;35268;42.642;23.308;2023-08-06T10:58:16;92850.25;;;23.59;49.86
49393;BME280;35268;42.642;23.308;2023-08-06T11:00:42;92854.66;;;23.53;50.14
49393;BME280;35268;42.642;23.308;2023-08-06T11:03:08;92847.00;;;23.48;50.45
49393;BME280;35268;42.642;23.308;2023-08-06T11:05:33;92857.28;;;23.56;51.30
49393;BME280;35268;42.642;23.308;2023-08-06T11:07:59;92858.75;;;23.61;50.00
49393;BME280;35268;42.642;23.308;2023-08-06T11:10:24;92850.25;;;23.59;51.02
49393;BME280;35268;42.642;23.308;2023-08-06T11:12:50;92851.50;;;23.74;51.08
49393;BME280;35268;42.642;23.308;2023-08-06T11:15:15;92848.16;;;23.87;50.30
49393;BME280;35268;42.642;23.308;2023-08-06T11:17:41;92857.28;;;23.96;49.75
49393;BME280;35268;42.642;23.308;2023-08-06T11:20:08;92865.38;;;24.00;49.79
49393;BME280;35268;42.642;23.308;2023-08-06T11:22:35;92870.22;;;24.09;50.49
49393;BME280;35268;42.642;23.308;2023-08-06T11:25:01;92887.16;;;23.60;49.58
49393;BME280;35268;42.642;23.308;2023-08-06T11:27:27;92890.84;;;23.30;49.22
49393;BME280;35268;42.642;23.308;2023-08-06T11:29:54;92878.16;;;23.23;50.28
49393;BME280;35268;42.642;23.308;2023-08-06T11:32:19;92877.41;;;23.22;51.20
49393;BME280;35268;42.642;23.308;2023-08-06T11:34:45;92882.41;;;23.00;49.91
49393;BME280;35268;42.642;23.308;2023-08-06T11:37:11;92892.75;;;22.86;50.60
49393;BME280;35268;42.642;23.308;2023-08-06T11:39:37;92883.03;;;22.64;57.95
49393;BME280;35268;42.642;23.308;2023-08-06T11:42:04;92874.22;;;22.57;58.38
49393;BME280;35268;42.642;23.308;2023-08-06T11:44:32;92868.03;;;22.56;59.78
49393;BME280;35268;42.642;23.308;2023-08-06T11:46:59;92868.88;;;22.53;60.49
49393;BME280;35268;42.642;23.308;2023-08-06T11:52:14;92869.09;;;22.62;61.82
49393;BME280;35268;42.642;23.308;2023-08-06T11:54:41;92863.19;;;22.68;60.21
49393;BME280;35268;42.642;23.308;2023-08-06T11:57:07;92856.34;;;22.59;61.04
49393;BME280;35268;42.642;23.308;2023-08-06T11:59:33;92858.81;;;22.74;62.67
49393;BME280;35268;42.642;23.308;2023-08-06T12:02:07;92857.59;;;23.02;64.15
49393;BME280;35268;42.642;23.308;2023-08-06T12:07:28;92856.25;;;23.70;55.84
49393;BME280;35268;42.642;23.308;2023-08-06T12:09:53;92860.94;;;24.06;50.76
49393;BME280;35268;42.642;23.308;2023-08-06T12:12:18;92849.91;;;24.30;48.89
49393;BME280;35268;42.642;23.308;2023-08-06T12:14:44;92841.66;;;24.33;48.88
49393;BME280;35268;42.642;23.308;2023-08-06T12:17:09;92850.25;;;24.32;49.56
49393;BME280;35268;42.642;23.308;2023-08-06T12:19:35;92837.06;;;24.30;50.23
49393;BME280;35268;42.642;23.308;2023-08-06T12:22:01;92840.47;;;24.34;49.96
49393;BME280;35268;42.642;23.308;2023-08-06T12:24:26;92844.38;;;24.33;49.92
49393;BME280;35268;42.642;23.308;2023-08-06T12:26:51;92838.84;;;24.37;50.23
49393;BME280;35268;42.642;23.308;2023-08-06T12:29:17;92847.72;;;24.41;50.60
49393;BME280;35268;42.642;23.308;2023-08-06T12:31:42;92844.31;;;24.37;50.51
49393;BME280;35268;42.642;23.308;2023-08-06T12:34:08;92847.69;;;24.25;50.65
49393;BME280;35268;42.642;23.308;2023-08-06T12:36:33;92855.19;;;24.20;50.38
49393;BME280;35268;42.642;23.308;2023-08-06T12:38:59;92856.88;;;24.14;50.09
49393;BME280;35268;42.642;23.308;2023-08-06T12:41:24;92853.13;;;24.08;49.99
49393;BME280;35268;42.642;23.308;2023-08-06T12:43:50;92851.41;;;23.98;50.24
49393;BME280;35268;42.642;23.308;2023-08-06T12:46:15;92846.22;;;24.03;49.92
49393;BME280;35268;42.642;23.308;2023-08-06T12:48:41;92844.28;;;24.04;50.49
49393;BME280;35268;42.642;23.308;2023-08-06T12:51:06;92846.13;;;24.07;50.46
49393;BME280;35268;42.642;23.308;2023-08-06T12:53:32;92839.69;;;24.17;50.68
49393;BME280;35268;42.642;23.308;2023-08-06T12:55:57;92844.31;;;24.37;50.70
49393;BME280;35268;42.642;23.308;2023-08-06T12:58:22;92844.94;;;24.61;49.49
49393;BME280;35268;42.642;23.308;2023-08-06T13:00:48;92841.56;;;24.86;48.81
49393;BME280;35268;42.642;23.308;2023-08-06T13:03:14;92839.97;;;25.18;47.69
49393;BME280;35268;42.642;23.308;2023-08-06T13:05:39;92840.72;;;25.48;46.18